Time,TemperatureF,DewpointF,PressureIn,WindDirection,WindDirectionDegrees,WindSpeedMPH,WindSpeedGustMPH,Humidity,HourlyPrecipIn,Conditions,Clouds,dailyrainin,SoftwareType,DateUTC
2013-05-14 11:23:00,60.0,42.0,29.60,West,261,1.0,6.0,52,0.00,,,0.00,,2013-05-14 16:23:00,
2013-05-14 11:33:00,57.0,42.0,29.62,SSE,163,4.0,8.0,58,0.00,,,0.00,,2013-05-14 16:33:00,
2013-05-14 11:43:00,57.0,42.0,29.62,SSE,163,4.0,8.0,58,0.00,,,0.00,,2013-05-14 16:43:00,
2013-05-14 11:54:00,57.0,42.0,29.62,SSE,163,4.0,8.0,58,0.00,,,0.00,,2013-05-14 16:54:00,
2013-05-14 12:03:00,57.0,43.0,29.62,South,184,3.0,8.0,59,0.00,,,0.00,,2013-05-14 17:03:00,
2013-05-14 12:13:00,57.0,43.0,29.62,South,184,3.0,8.0,59,0.00,,,0.00,,2013-05-14 17:13:00,
2013-05-14 12:24:00,57.0,43.0,29.62,South,184,3.0,8.0,59,0.00,,,0.00,,2013-05-14 17:24:00,
2013-05-14 12:32:00,59.0,43.0,29.62,WSW,244,2.0,7.0,56,0.00,,,0.00,,2013-05-14 17:32:00,
2013-05-14 12:43:00,59.0,43.0,29.62,WSW,244,2.0,7.0,56,0.00,,,0.00,,2013-05-14 17:43:00,
2013-05-14 12:52:00,59.0,43.0,29.62,WSW,244,2.0,7.0,56,0.00,,,0.00,,2013-05-14 17:52:00,
2013-05-14 13:02:00,59.0,43.0,29.62,WSW,244,2.0,7.0,56,0.00,,,0.00,,2013-05-14 18:02:00,
2013-05-14 13:52:00,60.0,40.0,29.64,North,9,3.0,8.0,47,0.00,,,0.00,,2013-05-14 18:52:00,
2013-05-14 14:01:00,60.0,40.0,29.64,North,9,3.0,8.0,47,0.00,,,0.00,,2013-05-14 19:01:00,
2013-05-14 14:12:00,60.0,40.0,29.64,North,9,3.0,8.0,47,0.00,,,0.00,,2013-05-14 19:12:00,
2013-05-14 14:22:00,61.0,40.0,29.63,NNE,22,1.0,4.0,46,0.00,,,0.00,,2013-05-14 19:22:00,
2013-05-14 14:32:00,62.0,42.0,29.63,NNW,342,4.0,11.0,47,0.00,,,0.00,,2013-05-14 19:32:00,
2013-05-14 14:52:00,61.0,42.0,29.63,NNW,345,7.0,11.0,49,0.00,,,0.00,,2013-05-14 19:52:00,
2013-05-14 15:02:00,61.0,41.0,29.60,NNW,339,1.0,6.0,47,0.00,,,0.00,,2013-05-14 20:02:00,
2013-05-14 15:11:00,61.0,41.0,29.60,NNW,339,1.0,6.0,47,0.00,,,0.00,,2013-05-14 20:11:00,
2013-05-14 15:23:00,61.0,41.0,29.60,NNW,339,1.0,6.0,47,0.00,,,0.00,,2013-05-14 20:23:00,
2013-05-14 15:32:00,61.0,41.0,29.60,NNW,339,1.0,6.0,47,0.00,,,0.00,,2013-05-14 20:32:00,
2013-05-14 15:44:00,61.0,41.0,29.60,NNW,339,1.0,6.0,47,0.00,,,0.00,,2013-05-14 20:44:00,
2013-05-14 15:52:00,60.0,43.0,29.61,SE,140,2.0,8.0,53,0.00,,,0.00,,2013-05-14 20:52:00,
2013-05-14 16:03:00,60.0,43.0,29.58,SE,125,6.0,12.0,53,0.00,,,0.00,,2013-05-14 21:03:00,
2013-05-14 16:12:00,60.0,43.0,29.58,SE,125,6.0,12.0,53,0.00,,,0.00,,2013-05-14 21:12:00,
2013-05-14 16:23:00,60.0,43.0,29.58,SE,125,6.0,12.0,53,0.00,,,0.00,,2013-05-14 21:23:00,
2013-05-14 16:33:00,56.0,41.0,29.57,SE,129,5.0,12.0,56,0.00,,,0.00,,2013-05-14 21:33:00,
2013-05-14 16:43:00,56.0,41.0,29.57,SE,129,5.0,12.0,56,0.00,,,0.00,,2013-05-14 21:43:00,
2013-05-14 16:53:00,54.0,40.0,29.58,ESE,121,5.0,10.0,60,0.00,,,0.00,,2013-05-14 21:53:00,
2013-05-14 17:03:00,54.0,40.0,29.58,ESE,121,5.0,10.0,60,0.00,,,0.00,,2013-05-14 22:03:00,
2013-05-14 17:13:00,54.0,40.0,29.58,ESE,121,5.0,10.0,60,0.00,,,0.00,,2013-05-14 22:13:00,
2013-05-14 17:24:00,52.0,41.0,29.57,ESE,111,5.0,8.0,65,0.00,,,0.00,,2013-05-14 22:24:00,
2013-05-14 17:34:00,52.0,41.0,29.57,ESE,111,5.0,8.0,65,0.00,,,0.00,,2013-05-14 22:34:00,
2013-05-14 17:45:00,52.0,41.0,29.57,ESE,111,5.0,8.0,65,0.00,,,0.00,,2013-05-14 22:45:00,
2013-05-14 17:54:00,52.0,41.0,29.54,ESE,121,5.0,11.0,65,0.00,,,0.00,,2013-05-14 22:54:00,
2013-05-14 18:03:00,52.0,40.0,29.54,ESE,107,5.0,12.0,64,0.00,,,0.00,,2013-05-14 23:03:00,
2013-05-14 18:12:00,52.0,40.0,29.54,ESE,107,5.0,12.0,64,0.00,,,0.00,,2013-05-14 23:12:00,
2013-05-14 18:21:00,51.0,39.0,29.52,SE,139,4.0,11.0,64,0.00,,,0.00,,2013-05-14 23:21:00,
2013-05-14 18:32:00,52.0,40.0,29.52,SE,143,2.0,8.0,64,0.00,,,0.00,,2013-05-14 23:32:00,
2013-05-14 18:44:00,52.0,40.0,29.52,SE,143,2.0,8.0,64,0.00,,,0.00,,2013-05-14 23:44:00,
2013-05-14 18:52:00,52.0,40.0,29.52,SE,143,2.0,8.0,64,0.00,,,0.00,,2013-05-14 23:52:00,
2013-05-14 19:02:00,52.0,40.0,29.52,SE,143,2.0,8.0,64,0.00,,,0.00,,2013-05-15 00:02:00,
2013-05-14 19:11:00,52.0,40.0,29.52,SE,143,2.0,8.0,64,0.00,,,0.00,,2013-05-15 00:11:00,
2013-05-14 19:21:00,51.0,41.0,29.52,South,174,3.0,7.0,68,0.00,,,0.00,,2013-05-15 00:21:00,
2013-05-14 19:32:00,51.0,41.0,29.52,South,174,3.0,7.0,68,0.00,,,0.00,,2013-05-15 00:32:00,
2013-05-14 19:42:00,51.0,41.0,29.52,South,174,3.0,7.0,68,0.00,,,0.00,,2013-05-15 00:42:00,
2013-05-14 19:51:00,50.0,40.0,29.50,South,171,2.0,6.0,69,0.00,,,0.00,,2013-05-15 00:51:00,
2013-05-14 20:01:00,50.0,41.0,29.50,South,171,2.0,8.0,70,0.00,,,0.00,,2013-05-15 01:01:00,
2013-05-14 20:11:00,50.0,41.0,29.50,South,171,2.0,8.0,70,0.00,,,0.00,,2013-05-15 01:11:00,
2013-05-14 20:21:00,50.0,41.0,29.50,South,171,2.0,8.0,70,0.00,,,0.00,,2013-05-15 01:21:00,
2013-05-14 20:31:00,50.0,41.0,29.50,South,171,2.0,8.0,70,0.00,,,0.00,,2013-05-15 01:31:00,
2013-05-14 20:42:00,50.0,41.0,29.50,South,171,2.0,8.0,70,0.00,,,0.00,,2013-05-15 01:42:00,